createdAt,value
2023-05-19T00:00:11.544Z,43.04
2023-05-19T00:03:15.279Z,43.02
2023-05-19T00:06:23.067Z,43.36
2023-05-19T00:09:26.854Z,43.53
2023-05-19T00:12:32.682Z,43.46
2023-05-19T00:15:37.040Z,43.29
2023-05-19T00:18:41.787Z,42.87
2023-05-19T00:21:45.096Z,42.78
2023-05-19T00:24:48.585Z,42.64
2023-05-19T00:27:52.094Z,42.54
2023-05-19T00:30:57.174Z,42.32
2023-05-19T00:34:00.922Z,42.22
2023-05-19T00:40:27.146Z,41.25
2023-05-19T00:43:31.288Z,40.72
2023-05-19T00:46:34.722Z,40.17
2023-05-19T00:49:38.703Z,39.84
2023-05-19T00:52:41.719Z,40.09
2023-05-19T00:55:45.829Z,39.99
2023-05-19T00:58:51.579Z,40.08
2023-05-19T01:01:55.585Z,39.90
2023-05-19T01:05:00.348Z,40.30
2023-05-19T01:08:04.626Z,40.29
2023-05-19T01:11:08.657Z,41.14
2023-05-19T01:14:12.072Z,42.07
2023-05-19T01:17:43.016Z,43.33
2023-05-19T01:20:59.810Z,44.78
2023-05-19T01:24:31.136Z,47.34
2023-05-19T01:28:04.066Z,48.65
2023-05-19T01:31:10.591Z,48.46
2023-05-19T01:34:17.249Z,47.44
2023-05-19T01:37:22.304Z,46.97
2023-05-19T01:40:27.333Z,44.77
2023-05-19T01:43:31.373Z,43.59
2023-05-19T01:46:36.251Z,41.35
2023-05-19T01:49:39.441Z,40.28
2023-05-19T01:52:42.497Z,38.76
2023-05-19T01:55:50.219Z,38.30
2023-05-19T01:59:32.334Z,37.24
2023-05-19T02:02:55.831Z,36.20
2023-05-19T02:06:30.622Z,34.88
2023-05-19T02:10:00.064Z,34.92
2023-05-19T02:13:07.196Z,35.03
2023-05-19T02:16:11.921Z,35.63
2023-05-19T02:19:33.047Z,35.92
2023-05-19T02:22:36.689Z,36.75
2023-05-19T02:25:40.579Z,38.04
2023-05-19T02:28:44.177Z,39.09
2023-05-19T02:31:48.240Z,39.66
2023-05-19T02:34:52.247Z,40.40
2023-05-19T02:37:56.365Z,41.79
2023-05-19T02:41:01.356Z,42.41
2023-05-19T02:44:05.969Z,43.78
2023-05-19T02:47:10.336Z,44.62
2023-05-19T02:50:14.918Z,46.10
2023-05-19T02:53:18.650Z,49.93
2023-05-19T02:56:22.776Z,51.67
2023-05-19T02:59:26.683Z,53.13
2023-05-19T03:02:30.565Z,54.39
2023-05-19T03:05:34.433Z,57.03
2023-05-19T03:08:37.701Z,57.59
2023-05-19T03:11:41.902Z,56.90
2023-05-19T03:14:45.027Z,57.74
2023-05-19T03:17:48.694Z,56.75
2023-05-19T03:20:54.483Z,55.46
2023-05-19T03:24:00.058Z,53.45
2023-05-19T03:27:07.861Z,53.05
2023-05-19T03:30:13.227Z,52.98
2023-05-19T03:33:37.017Z,51.43
2023-05-19T03:36:41.940Z,52.50
2023-05-19T03:39:50.723Z,52.59
2023-05-19T03:42:55.404Z,52.15
2023-05-19T03:45:59.356Z,50.91
2023-05-19T03:49:18.605Z,50.85
2023-05-19T03:52:47.173Z,50.30
2023-05-19T03:56:20.081Z,48.86
2023-05-19T03:59:24.332Z,48.10
2023-05-19T04:02:28.638Z,47.27
2023-05-19T04:05:32.711Z,47.34
2023-05-19T04:08:37.170Z,46.91
2023-05-19T04:11:42.018Z,46.13
2023-05-19T04:14:46.060Z,47.17
2023-05-19T04:17:50.031Z,45.52
2023-05-19T04:20:55.210Z,46.11
2023-05-19T04:24:00.792Z,45.49
2023-05-19T04:27:05.797Z,44.89
2023-05-19T04:30:10.142Z,42.72
2023-05-19T04:33:15.941Z,43.22
2023-05-19T04:36:21.999Z,43.01
2023-05-19T04:39:28.858Z,43.10
2023-05-19T04:42:33.550Z,43.10
2023-05-19T04:45:43.358Z,43.65
2023-05-19T04:48:48.271Z,44.09
2023-05-19T04:51:55.845Z,44.25
2023-05-19T04:55:04.154Z,43.85
2023-05-19T04:58:08.561Z,43.03
2023-05-19T05:01:17.075Z,42.73
2023-05-19T05:04:22.503Z,43.02
2023-05-19T05:07:26.287Z,43.22
2023-05-19T05:10:31.015Z,43.32
2023-05-19T05:13:35.624Z,43.34
2023-05-19T05:16:39.821Z,43.09
2023-05-19T05:19:46.093Z,42.85
2023-05-19T05:22:50.790Z,42.88
2023-05-19T05:25:55.328Z,43.09
2023-05-19T05:28:59.850Z,43.38
2023-05-19T05:32:03.573Z,43.57
2023-05-19T05:35:07.746Z,43.69
2023-05-19T05:38:12.144Z,44.44
2023-05-19T05:41:17.255Z,45.17
2023-05-19T05:44:22.627Z,45.88
2023-05-19T05:47:27.777Z,47.57
2023-05-19T05:50:32.168Z,48.93
2023-05-19T05:53:42.411Z,50.17
2023-05-19T05:56:46.679Z,50.24
2023-05-19T05:59:51.641Z,50.69
2023-05-19T06:02:55.476Z,50.86
2023-05-19T06:05:59.425Z,50.31
2023-05-19T06:09:03.601Z,49.87
2023-05-19T06:12:07.948Z,50.08
2023-05-19T06:15:17.796Z,50.02
2023-05-19T06:18:42.148Z,50.18
2023-05-19T06:21:46.733Z,50.07
2023-05-19T06:24:52.169Z,50.37
2023-05-19T06:27:56.413Z,50.43
2023-05-19T06:31:01.273Z,50.48
2023-05-19T06:34:26.343Z,51.18
2023-05-19T06:37:32.401Z,51.57
2023-05-19T06:40:37.686Z,51.55
2023-05-19T06:43:41.741Z,51.51
2023-05-19T06:46:52.273Z,51.17
2023-05-19T06:49:59.425Z,50.96
2023-05-19T06:53:08.396Z,51.05
2023-05-19T06:56:13.022Z,51.51
2023-05-19T06:59:16.856Z,51.84
2023-05-19T07:02:21.542Z,51.93
2023-05-19T07:05:26.341Z,52.01
2023-05-19T07:08:34.508Z,52.21
2023-05-19T07:11:39.342Z,52.15
2023-05-19T07:14:44.994Z,52.38
2023-05-19T07:17:50.007Z,52.42
2023-05-19T07:20:54.931Z,52.41
2023-05-19T07:23:59.392Z,52.41
2023-05-19T07:27:04.638Z,53.04
2023-05-19T07:30:09.101Z,53.97
2023-05-19T07:33:13.257Z,54.63
2023-05-19T07:36:17.857Z,56.37
2023-05-19T07:39:22.383Z,57.65
2023-05-19T07:42:26.394Z,58.78
2023-05-19T07:45:30.250Z,59.07
2023-05-19T07:48:33.704Z,59.82
2023-05-19T07:51:37.621Z,60.75
2023-05-19T07:54:41.267Z,61.32
2023-05-19T07:57:45.555Z,61.00
2023-05-19T08:00:49.500Z,60.65
2023-05-19T08:03:53.685Z,60.00
2023-05-19T08:07:00.904Z,60.68
2023-05-19T08:10:05.324Z,60.17
2023-05-19T08:13:09.559Z,59.00
2023-05-19T08:16:13.233Z,59.28
2023-05-19T08:19:16.846Z,58.00
2023-05-19T08:22:20.199Z,58.43
2023-05-19T08:25:23.731Z,58.39
2023-05-19T08:28:27.349Z,58.67
2023-05-19T08:31:30.783Z,58.60
2023-05-19T08:34:34.698Z,58.25
2023-05-19T08:37:40.735Z,57.48
2023-05-19T08:40:48.554Z,58.05
2023-05-19T08:43:52.052Z,58.99
2023-05-19T08:47:05.480Z,59.89
2023-05-19T08:50:13.857Z,61.22
2023-05-19T08:53:33.397Z,62.30
2023-05-19T08:56:39.736Z,63.70
2023-05-19T08:59:45.056Z,65.14
2023-05-19T09:03:00.727Z,66.67
2023-05-19T09:06:13.552Z,67.89
2023-05-19T09:09:17.900Z,67.86
2023-05-19T09:12:21.910Z,67.88
2023-05-19T09:15:28.694Z,65.93
2023-05-19T09:18:32.613Z,65.77
2023-05-19T09:21:36.968Z,66.04
2023-05-19T09:24:41.493Z,65.97
2023-05-19T09:27:46.311Z,65.66
2023-05-19T09:30:49.583Z,65.93
2023-05-19T09:33:54.635Z,66.88
2023-05-19T09:37:01.354Z,66.61
2023-05-19T09:40:06.244Z,67.20
2023-05-19T09:46:31.706Z,67.82
2023-05-19T09:49:35.393Z,67.22
2023-05-19T09:52:39.994Z,67.67
2023-05-19T09:55:43.837Z,66.94
2023-05-19T09:58:46.893Z,67.63
2023-05-19T10:01:50.746Z,67.92
2023-05-19T10:04:55.563Z,67.72
2023-05-19T10:07:59.162Z,69.41
2023-05-19T10:11:03.169Z,69.33
2023-05-19T10:14:06.878Z,70.88
2023-05-19T10:17:13.477Z,70.43
2023-05-19T10:20:18.014Z,71.42
2023-05-19T10:23:21.220Z,71.18
2023-05-19T10:26:27.137Z,71.73
2023-05-19T10:29:35.440Z,71.49
2023-05-19T10:32:41.372Z,73.31
2023-05-19T10:36:11.450Z,72.60
2023-05-19T10:39:29.815Z,73.01
2023-05-19T10:42:50.904Z,73.02
2023-05-19T10:45:58.900Z,72.76
2023-05-19T10:49:02.779Z,73.04
2023-05-19T10:52:24.116Z,72.95
2023-05-19T10:56:04.941Z,73.43
2023-05-19T10:59:08.080Z,73.38
2023-05-19T11:02:12.367Z,73.94
2023-05-19T11:05:19.357Z,73.84
2023-05-19T11:08:34.160Z,73.94
2023-05-19T11:11:48.088Z,75.16
2023-05-19T11:15:00.173Z,75.13
2023-05-19T11:18:05.664Z,75.29
2023-05-19T11:21:09.498Z,75.44
2023-05-19T11:24:40.983Z,75.95
2023-05-19T11:27:47.586Z,75.76
2023-05-19T11:30:52.766Z,76.03
2023-05-19T11:33:56.526Z,76.14
2023-05-19T11:37:00.798Z,75.98
2023-05-19T11:40:08.693Z,76.11
2023-05-19T11:43:12.854Z,75.83
2023-05-19T11:46:17.029Z,75.99
2023-05-19T11:49:21.131Z,75.05
2023-05-19T11:52:28.098Z,75.23
2023-05-19T11:55:32.048Z,74.43
2023-05-19T11:58:35.499Z,74.46
2023-05-19T12:01:39.203Z,74.28
2023-05-19T12:04:43.344Z,74.87
2023-05-19T12:07:50.608Z,74.86
2023-05-19T12:10:54.699Z,75.01
2023-05-19T12:14:02.661Z,74.67
2023-05-19T12:17:14.624Z,75.25
2023-05-19T12:20:20.556Z,76.09
2023-05-19T12:23:25.859Z,75.87
2023-05-19T12:26:29.210Z,75.97
2023-05-19T12:29:33.726Z,75.54
2023-05-19T12:32:37.762Z,75.20
2023-05-19T12:35:44.474Z,75.31
2023-05-19T12:38:48.992Z,74.81
2023-05-19T12:41:52.795Z,74.13
2023-05-19T12:44:58.378Z,74.20
2023-05-19T12:48:07.474Z,73.83
2023-05-19T12:51:11.016Z,73.94
2023-05-19T12:54:14.814Z,73.40
2023-05-19T12:57:19.182Z,73.19
2023-05-19T13:00:26.793Z,72.52
2023-05-19T13:03:32.581Z,72.37
2023-05-19T13:06:36.823Z,71.87
2023-05-19T13:09:39.866Z,71.39
2023-05-19T13:20:12.793Z,70.77
2023-05-19T13:23:17.434Z,70.69
2023-05-19T13:26:22.553Z,70.85
2023-05-19T13:29:26.560Z,70.92
2023-05-19T13:32:29.966Z,71.23
2023-05-19T13:35:42.661Z,71.74
2023-05-19T13:38:47.164Z,72.27
2023-05-19T13:41:51.364Z,72.30
2023-05-19T13:44:57.942Z,72.64
2023-05-19T13:48:01.934Z,72.74
2023-05-19T13:51:06.458Z,72.52
2023-05-19T13:54:10.726Z,72.66
2023-05-19T13:57:15.585Z,72.34
2023-05-19T14:00:20.763Z,71.70
2023-05-19T14:03:25.954Z,71.25
2023-05-19T14:06:29.818Z,71.13
2023-05-19T14:09:33.739Z,70.90
2023-05-19T14:12:55.247Z,70.75
2023-05-19T14:16:00.673Z,70.77
2023-05-19T14:19:05.511Z,71.00
2023-05-19T14:22:10.508Z,71.02
2023-05-19T14:25:14.923Z,70.85
2023-05-19T14:28:20.929Z,70.54
2023-05-19T14:31:26.789Z,70.94
2023-05-19T14:34:31.968Z,70.92
2023-05-19T14:37:35.736Z,71.23
2023-05-19T14:40:42.582Z,71.31
2023-05-19T14:43:48.842Z,71.27
2023-05-19T14:46:53.163Z,71.43
2023-05-19T14:49:57.849Z,71.28
2023-05-19T14:53:02.509Z,71.30
2023-05-19T14:56:07.350Z,71.13
2023-05-19T14:59:11.550Z,71.26
2023-05-19T15:02:15.390Z,71.11
2023-05-19T15:05:19.408Z,70.89
2023-05-19T15:08:23.256Z,70.79
2023-05-19T15:11:27.728Z,70.79
2023-05-19T15:14:32.008Z,70.52
2023-05-19T15:17:36.230Z,70.32
2023-05-19T15:20:40.581Z,69.68
2023-05-19T15:23:45.704Z,69.88
2023-05-19T15:26:50.221Z,69.81
2023-05-19T15:29:54.802Z,69.82
2023-05-19T15:32:59.174Z,69.99
2023-05-19T15:36:03.302Z,69.92
2023-05-19T15:39:07.874Z,70.08
2023-05-19T15:42:12.615Z,69.76
2023-05-19T15:45:16.454Z,70.00
2023-05-19T15:48:20.945Z,69.63
2023-05-19T15:51:27.194Z,69.86
2023-05-19T15:54:32.246Z,69.91
2023-05-19T15:57:36.691Z,69.92
2023-05-19T16:00:41.541Z,70.10
2023-05-19T16:03:47.365Z,70.03
2023-05-19T16:06:53.595Z,70.11
2023-05-19T16:09:57.215Z,70.23
2023-05-19T16:13:02.023Z,70.40
2023-05-19T16:16:06.811Z,70.13
2023-05-19T16:19:11.546Z,69.67
2023-05-19T16:22:15.318Z,69.86
2023-05-19T16:25:20.560Z,69.89
2023-05-19T16:28:25.304Z,69.62
2023-05-19T16:31:31.022Z,69.59
2023-05-19T16:34:35.401Z,69.48
2023-05-19T16:37:40.194Z,69.56
2023-05-19T16:40:45.509Z,69.27
2023-05-19T16:43:50.417Z,69.04
2023-05-19T16:46:55.203Z,69.15
2023-05-19T16:50:01.383Z,68.64
2023-05-19T16:53:06.639Z,68.38
2023-05-19T16:56:10.990Z,68.19
2023-05-19T16:59:14.617Z,68.17
2023-05-19T17:02:18.571Z,68.42
2023-05-19T17:05:24.262Z,68.07
2023-05-19T17:08:28.935Z,68.12
2023-05-19T17:11:32.910Z,68.10
2023-05-19T17:14:37.683Z,67.91
2023-05-19T17:17:41.577Z,67.88
2023-05-19T17:20:47.703Z,68.02
2023-05-19T17:23:52.227Z,67.86
2023-05-19T17:26:56.979Z,68.19
2023-05-19T17:30:01.264Z,68.35
2023-05-19T17:33:06.161Z,68.88
2023-05-19T17:36:10.434Z,68.86
2023-05-19T17:39:15.234Z,69.33
2023-05-19T17:42:20.076Z,69.09
2023-05-19T17:45:27.716Z,69.49
2023-05-19T17:48:31.868Z,69.50
2023-05-19T17:51:36.488Z,69.47
2023-05-19T17:54:40.601Z,69.31
2023-05-19T17:57:46.964Z,69.22
2023-05-19T18:00:53.772Z,68.92
2023-05-19T18:03:58.183Z,68.46
2023-05-19T18:07:03.879Z,68.61
2023-05-19T18:10:09.969Z,68.46
2023-05-19T18:13:17.389Z,68.21
2023-05-19T18:16:21.430Z,67.93
2023-05-19T18:19:25.585Z,67.45
2023-05-19T18:22:29.367Z,67.43
2023-05-19T18:25:33.625Z,67.50
2023-05-19T18:28:37.681Z,67.65
2023-05-19T18:31:43.815Z,67.47
2023-05-19T18:34:48.516Z,67.79
2023-05-19T18:37:52.511Z,67.50
2023-05-19T18:40:57.639Z,67.62
2023-05-19T18:44:01.680Z,67.36
2023-05-19T18:47:06.802Z,67.52
2023-05-19T18:50:11.519Z,67.44
2023-05-19T18:53:16.298Z,67.34
2023-05-19T18:56:27.976Z,67.20
2023-05-19T18:59:32.550Z,67.01
2023-05-19T19:02:38.438Z,66.94
2023-05-19T19:05:43.056Z,66.79
2023-05-19T19:08:48.089Z,66.67
2023-05-19T19:11:52.928Z,66.50
2023-05-19T19:14:57.546Z,66.39
2023-05-19T19:18:05.547Z,66.21
2023-05-19T19:21:12.364Z,65.98
2023-05-19T19:24:16.065Z,65.90
2023-05-19T19:27:21.556Z,65.70
2023-05-19T19:30:26.536Z,66.03
2023-05-19T19:33:30.432Z,66.25
2023-05-19T19:36:34.651Z,66.31
2023-05-19T19:39:38.750Z,66.10
2023-05-19T19:42:43.231Z,66.74
2023-05-19T19:45:47.129Z,66.96
2023-05-19T19:48:52.263Z,67.10
2023-05-19T19:51:55.480Z,67.49
2023-05-19T19:54:59.702Z,67.32
2023-05-19T19:58:03.595Z,67.52
2023-05-19T20:01:08.914Z,67.20
2023-05-19T20:04:13.117Z,66.96
2023-05-19T20:07:20.668Z,66.81
2023-05-19T20:10:24.546Z,67.90
2023-05-19T20:13:32.800Z,66.74
2023-05-19T20:16:36.931Z,67.88
2023-05-19T20:19:41.482Z,67.67
2023-05-19T20:22:47.644Z,67.00
2023-05-19T20:26:10.098Z,66.82
2023-05-19T20:29:15.181Z,66.31
2023-05-19T20:32:19.215Z,65.97
2023-05-19T20:35:23.167Z,65.64
2023-05-19T20:38:27.193Z,65.58
2023-05-19T20:41:30.709Z,65.23
2023-05-19T20:44:34.543Z,65.02
2023-05-19T20:47:38.476Z,65.19
2023-05-19T20:50:42.919Z,64.94
2023-05-19T20:53:46.468Z,64.97
2023-05-19T20:56:50.598Z,64.58
2023-05-19T20:59:54.498Z,64.86
2023-05-19T21:02:58.852Z,64.23
2023-05-19T21:06:02.697Z,64.16
2023-05-19T21:09:07.651Z,64.10
2023-05-19T21:12:11.235Z,64.08
2023-05-19T21:15:15.624Z,63.49
2023-05-19T21:18:19.413Z,63.48
2023-05-19T21:21:23.120Z,63.58
2023-05-19T21:24:27.060Z,63.24
2023-05-19T21:27:33.809Z,63.06
2023-05-19T21:30:37.681Z,62.71
2023-05-19T21:33:41.435Z,62.31
2023-05-19T21:36:44.848Z,61.97
2023-05-19T21:39:48.566Z,61.46
2023-05-19T21:42:52.283Z,61.10
2023-05-19T21:45:56.466Z,60.47
2023-05-19T21:48:59.874Z,60.25
2023-05-19T21:52:03.540Z,59.98
2023-05-19T21:55:08.082Z,59.15
2023-05-19T21:58:12.229Z,58.80
2023-05-19T22:01:15.952Z,58.53
2023-05-19T22:04:19.913Z,58.26
2023-05-19T22:07:27.440Z,57.75
2023-05-19T22:10:31.829Z,57.17
2023-05-19T22:13:37.954Z,56.61
2023-05-19T22:16:41.021Z,56.67
2023-05-19T22:19:44.805Z,55.79
2023-05-19T22:22:48.799Z,55.51
2023-05-19T22:25:52.578Z,55.35
2023-05-19T22:28:56.835Z,55.51
2023-05-19T22:32:00.323Z,55.47
2023-05-19T22:35:04.332Z,55.84
2023-05-19T22:38:12.674Z,55.93
2023-05-19T22:41:16.661Z,56.18
2023-05-19T22:44:20.238Z,56.17
2023-05-19T22:47:24.708Z,55.83
2023-05-19T22:50:28.567Z,55.42
2023-05-19T22:53:32.614Z,54.78
2023-05-19T22:56:36.423Z,54.23
2023-05-19T22:59:40.569Z,53.92
2023-05-19T23:02:43.707Z,53.44
2023-05-19T23:05:47.515Z,53.10
2023-05-19T23:09:00.151Z,52.88
2023-05-19T23:12:04.169Z,53.08
2023-05-19T23:15:10.267Z,53.02
2023-05-19T23:18:15.975Z,52.56
2023-05-19T23:21:20.040Z,52.10
2023-05-19T23:24:24.081Z,52.18
2023-05-19T23:27:27.844Z,51.89
2023-05-19T23:30:33.904Z,51.26
2023-05-19T23:33:37.717Z,50.99
2023-05-19T23:36:40.884Z,50.29
2023-05-19T23:39:44.564Z,49.30
2023-05-19T23:42:48.006Z,46.18
2023-05-19T23:45:51.698Z,46.43
2023-05-19T23:48:56.011Z,44.62
2023-05-19T23:51:59.022Z,44.15
2023-05-19T23:55:04.401Z,43.24
2023-05-19T23:58:08.128Z,43.31
